Погода Гуаранезияна неделю

Минас-Жерайс, Бразилия

21 - 27 июля
  • 21июля
    Сегодня
    +12°
    +27°
    Ясно и безоблачно
    ВремяПогодаТемператураВлажностьДавлениеВетер, м/сВероятность осадков
    00:00Ясно и безоблачно+15°C72 %694 мм2.7 м/с5 %
    03:00Ясно и безоблачно+14°C81 %694 мм3.7 м/с5 %
    06:00Ясно и безоблачно+12°C89 %693 мм4.5 м/с5 %
    09:00Ясно и безоблачно+16°C69 %695 мм3.8 м/с5 %
    12:00Ясно и безоблачно+23°C41 %696 мм2.2 м/с5 %
    15:00Ясно и безоблачно+26°C35 %694 мм1.0 м/с5 %
    18:00Ясно и безоблачно+22°C55 %694 мм2.8 м/с5 %
    21:00Ясно и безоблачно+17°C65 %694 мм3.1 м/с5 %
  • 22июля
    Понедельник
    +13°
    +27°
    Ясно и безоблачно
    ВремяПогодаТемператураВлажностьДавлениеВетер, м/сВероятность осадков
    00:00Ясно и безоблачно+16°C70 %694 мм3.1 м/с5 %
    03:00Ясно и безоблачно+15°C73 %693 мм3.0 м/с5 %
    06:00Ясно и безоблачно+13°C80 %693 мм3.4 м/с5 %
    09:00Ясно и безоблачно+17°C65 %696 мм2.2 м/с5 %
    12:00Ясно и безоблачно+24°C35 %696 мм0.5 м/с5 %
    15:00Ясно и безоблачно+27°C30 %695 мм0.7 м/с5 %
    18:00Ясно и безоблачно+22°C55 %694 мм1.7 м/с5 %
    21:00Ясно и безоблачно+17°C62 %694 мм1.9 м/с5 %
  • 23июля
    Вторник
    +12°
    +27°
    Ясно и безоблачно
    ВремяПогодаТемператураВлажностьДавлениеВетер, м/сВероятность осадков
    00:00Ясно и безоблачно+16°C65 %694 мм2.5 м/с5 %
    03:00Ясно и безоблачно+14°C71 %693 мм2.8 м/с5 %
    06:00Ясно и безоблачно+13°C81 %694 мм3.5 м/с5 %
    09:00Ясно и безоблачно+18°C63 %696 мм2.8 м/с5 %
    12:00Ясно и безоблачно+24°C41 %696 мм2.6 м/с5 %
    15:00Ясно и безоблачно+27°C34 %695 мм2.3 м/с5 %
    18:00Ясно и безоблачно+22°C48 %695 мм3.0 м/с5 %
    21:00Ясно и безоблачно+18°C57 %695 мм3.1 м/с5 %
  • 24июля
    Среда
    +13°
    +27°
    Небольшая облачность
    ВремяПогодаТемператураВлажностьДавлениеВетер, м/сВероятность осадков
    00:00Ясно и безоблачно+17°C64 %695 мм3.2 м/с5 %
    03:00Небольшая облачность+15°C72 %694 мм3.9 м/с5 %
    06:00Ясно и безоблачно+13°C83 %694 мм3.7 м/с5 %
    09:00Ясно и безоблачно+17°C66 %696 мм3.6 м/с5 %
    12:00Практически безоблачно+24°C40 %697 мм2.3 м/с5 %
    15:00Небольшая облачность+27°C35 %695 мм1.7 м/с5 %
    18:00Облачно с прояснениями+22°C52 %695 мм3.3 м/с5 %
    21:00Небольшая облачность+18°C66 %695 мм3.0 м/с5 %
Мы используем cookies
Соглашаюсь